sensor_id;sensor_type;location;lat;lon;timestamp;pressure;altitude;pressure_sealevel;temperature;humidity
61554;BME280;47425;51.976;5.326;2023-01-30T00:01:33;101589.50;;;14.75;41.81
61554;BME280;47425;51.976;5.326;2023-01-30T00:04:01;101586.13;;;14.70;42.08
61554;BME280;47425;51.976;5.326;2023-01-30T00:06:28;101586.13;;;14.70;41.91
61554;BME280;47425;51.976;5.326;2023-01-30T00:08:54;101586.91;;;14.73;41.91
61554;BME280;47425;51.976;5.326;2023-01-30T00:11:22;101578.16;;;14.71;41.83
61554;BME280;47425;51.976;5.326;2023-01-30T00:13:49;101581.28;;;14.51;42.53
61554;BME280;47425;51.976;5.326;2023-01-30T00:16:16;101579.13;;;14.31;42.73
61554;BME280;47425;51.976;5.326;2023-01-30T00:18:45;101580.66;;;14.41;42.85
61554;BME280;47425;51.976;5.326;2023-01-30T00:21:13;101580.19;;;14.60;43.10
61554;BME280;47425;51.976;5.326;2023-01-30T00:23:40;101583.97;;;14.50;42.52
61554;BME280;47425;51.976;5.326;2023-01-30T00:26:09;101566.41;;;14.49;42.79
61554;BME280;47425;51.976;5.326;2023-01-30T00:28:37;101574.31;;;14.49;42.95
61554;BME280;47425;51.976;5.326;2023-01-30T00:31:04;101559.66;;;14.38;43.48
61554;BME280;47425;51.976;5.326;2023-01-30T00:33:31;101552.72;;;14.34;43.65
61554;BME280;47425;51.976;5.326;2023-01-30T00:36:00;101548.47;;;14.29;43.81
61554;BME280;47425;51.976;5.326;2023-01-30T00:38:28;101544.81;;;14.34;43.28
61554;BME280;47425;51.976;5.326;2023-01-30T00:40:55;101544.78;;;14.36;43.79
61554;BME280;47425;51.976;5.326;2023-01-30T00:43:21;101527.47;;;14.25;44.07
61554;BME280;47425;51.976;5.326;2023-01-30T00:46:10;101532.47;;;14.00;44.47
61554;BME280;47425;51.976;5.326;2023-01-30T00:48:58;101531.22;;;14.17;43.97
61554;BME280;47425;51.976;5.326;2023-01-30T00:51:26;101526.41;;;14.33;44.77
61554;BME280;47425;51.976;5.326;2023-01-30T00:53:53;101511.63;;;14.27;44.34
61554;BME280;47425;51.976;5.326;2023-01-30T00:56:20;101516.06;;;14.25;44.14
61554;BME280;47425;51.976;5.326;2023-01-30T00:58:47;101511.66;;;14.25;43.98
61554;BME280;47425;51.976;5.326;2023-01-30T01:01:14;101519.28;;;14.36;44.51
61554;BME280;47425;51.976;5.326;2023-01-30T01:03:41;101512.47;;;14.29;44.36
61554;BME280;47425;51.976;5.326;2023-01-30T01:06:09;101514.06;;;14.35;44.58
61554;BME280;47425;51.976;5.326;2023-01-30T01:08:37;101520.84;;;14.43;43.72
61554;BME280;47425;51.976;5.326;2023-01-30T01:11:04;101516.59;;;14.38;44.77
61554;BME280;47425;51.976;5.326;2023-01-30T01:13:31;101520.41;;;14.27;44.38
61554;BME280;47425;51.976;5.326;2023-01-30T01:15:59;101505.53;;;14.25;44.12
61554;BME280;47425;51.976;5.326;2023-01-30T01:18:26;101507.94;;;14.34;44.84
61554;BME280;47425;51.976;5.326;2023-01-30T01:20:53;101501.75;;;14.35;45.03
61554;BME280;47425;51.976;5.326;2023-01-30T01:23:20;101494.88;;;14.30;44.32
61554;BME280;47425;51.976;5.326;2023-01-30T01:25:50;101496.38;;;14.40;44.79
61554;BME280;47425;51.976;5.326;2023-01-30T01:28:16;101484.94;;;14.41;44.53
61554;BME280;47425;51.976;5.326;2023-01-30T01:30:46;101480.75;;;14.32;44.60
61554;BME280;47425;51.976;5.326;2023-01-30T01:33:14;101475.00;;;14.51;44.27
61554;BME280;47425;51.976;5.326;2023-01-30T01:35:41;101472.47;;;14.48;44.25
61554;BME280;47425;51.976;5.326;2023-01-30T01:38:07;101473.50;;;14.40;45.01
61554;BME280;47425;51.976;5.326;2023-01-30T01:40:34;101467.28;;;14.43;44.67
61554;BME280;47425;51.976;5.326;2023-01-30T01:43:23;101471.75;;;14.41;44.36
61554;BME280;47425;51.976;5.326;2023-01-30T01:45:55;101456.72;;;14.44;44.76
61554;BME280;47425;51.976;5.326;2023-01-30T01:48:27;101447.16;;;14.40;45.01
61554;BME280;47425;51.976;5.326;2023-01-30T01:50:58;101446.16;;;14.44;44.28
61554;BME280;47425;51.976;5.326;2023-01-30T01:53:30;101434.94;;;14.38;44.79
61554;BME280;47425;51.976;5.326;2023-01-30T01:56:01;101431.88;;;14.53;44.44
61554;BME280;47425;51.976;5.326;2023-01-30T01:58:34;101444.97;;;14.56;44.86
61554;BME280;47425;51.976;5.326;2023-01-30T02:01:04;101450.16;;;14.26;45.33
61554;BME280;47425;51.976;5.326;2023-01-30T02:03:34;101447.91;;;14.11;46.00
61554;BME280;47425;51.976;5.326;2023-01-30T02:06:05;101446.31;;;14.05;45.83
61554;BME280;47425;51.976;5.326;2023-01-30T02:08:34;101444.56;;;14.04;46.21
61554;BME280;47425;51.976;5.326;2023-01-30T02:11:08;101439.19;;;14.09;45.53
61554;BME280;47425;51.976;5.326;2023-01-30T02:13:37;101447.25;;;14.03;46.27
61554;BME280;47425;51.976;5.326;2023-01-30T02:16:06;101443.09;;;13.92;46.29
61554;BME280;47425;51.976;5.326;2023-01-30T02:18:33;101448.59;;;13.85;46.82
61554;BME280;47425;51.976;5.326;2023-01-30T02:21:23;101441.56;;;13.84;46.60
61554;BME280;47425;51.976;5.326;2023-01-30T02:27:06;101444.34;;;13.77;46.99
61554;BME280;47425;51.976;5.326;2023-01-30T02:29:54;101442.09;;;13.62;47.25
61554;BME280;47425;51.976;5.326;2023-01-30T02:32:33;101437.03;;;13.53;48.39
61554;BME280;47425;51.976;5.326;2023-01-30T02:35:07;101434.75;;;13.39;48.07
61554;BME280;47425;51.976;5.326;2023-01-30T02:37:59;101429.66;;;13.69;47.39
61554;BME280;47425;51.976;5.326;2023-01-30T02:40:47;101428.06;;;13.62;47.48
61554;BME280;47425;51.976;5.326;2023-01-30T02:43:24;101420.25;;;13.58;47.54
61554;BME280;47425;51.976;5.326;2023-01-30T02:45:56;101421.84;;;13.66;47.42
61554;BME280;47425;51.976;5.326;2023-01-30T02:48:34;101421.72;;;13.70;47.65
61554;BME280;47425;51.976;5.326;2023-01-30T02:51:08;101425.63;;;13.54;48.22
61554;BME280;47425;51.976;5.326;2023-01-30T02:53:38;101417.94;;;13.45;48.18
61554;BME280;47425;51.976;5.326;2023-01-30T02:56:06;101419.00;;;13.73;47.60
61554;BME280;47425;51.976;5.326;2023-01-30T02:58:36;101408.88;;;13.94;46.81
61554;BME280;47425;51.976;5.326;2023-01-30T03:01:20;101418.56;;;13.92;47.03
61554;BME280;47425;51.976;5.326;2023-01-30T03:04:07;101422.28;;;13.83;47.76
61554;BME280;47425;51.976;5.326;2023-01-30T03:07:01;101413.28;;;13.92;47.20
61554;BME280;47425;51.976;5.326;2023-01-30T03:09:43;101408.03;;;13.92;47.74
61554;BME280;47425;51.976;5.326;2023-01-30T03:12:17;101399.53;;;13.81;47.85
61554;BME280;47425;51.976;5.326;2023-01-30T03:14:53;101394.03;;;13.90;47.06
61554;BME280;47425;51.976;5.326;2023-01-30T03:17:23;101400.63;;;14.06;46.87
61554;BME280;47425;51.976;5.326;2023-01-30T03:19:53;101384.97;;;14.00;47.27
61554;BME280;47425;51.976;5.326;2023-01-30T03:22:22;101387.28;;;13.80;48.09
61554;BME280;47425;51.976;5.326;2023-01-30T03:24:50;101389.34;;;13.67;48.31
61554;BME280;47425;51.976;5.326;2023-01-30T03:27:18;101365.91;;;13.56;48.24
61554;BME280;47425;51.976;5.326;2023-01-30T03:29:46;101388.16;;;13.79;47.92
61554;BME280;47425;51.976;5.326;2023-01-30T03:32:16;101380.69;;;13.96;47.62
61554;BME280;47425;51.976;5.326;2023-01-30T03:34:43;101381.91;;;13.83;48.13
61554;BME280;47425;51.976;5.326;2023-01-30T03:37:11;101383.03;;;13.74;48.14
61554;BME280;47425;51.976;5.326;2023-01-30T03:39:39;101381.91;;;13.83;48.15
61554;BME280;47425;51.976;5.326;2023-01-30T03:42:06;101383.63;;;13.85;47.53
61554;BME280;47425;51.976;5.326;2023-01-30T03:44:33;101377.88;;;14.04;46.85
61554;BME280;47425;51.976;5.326;2023-01-30T03:47:00;101377.50;;;14.18;47.15
61554;BME280;47425;51.976;5.326;2023-01-30T03:49:27;101382.53;;;13.92;47.67
61554;BME280;47425;51.976;5.326;2023-01-30T03:51:55;101379.41;;;13.78;47.90
61554;BME280;47425;51.976;5.326;2023-01-30T03:54:24;101352.81;;;13.89;47.29
61554;BME280;47425;51.976;5.326;2023-01-30T03:56:52;101366.22;;;14.13;46.94
61554;BME280;47425;51.976;5.326;2023-01-30T03:59:19;101371.03;;;14.30;46.63
61554;BME280;47425;51.976;5.326;2023-01-30T04:01:52;101379.84;;;14.29;46.50
61554;BME280;47425;51.976;5.326;2023-01-30T04:04:19;101387.69;;;14.32;46.22
61554;BME280;47425;51.976;5.326;2023-01-30T04:06:48;101387.28;;;14.14;46.85
61554;BME280;47425;51.976;5.326;2023-01-30T04:09:14;101382.72;;;14.19;47.08
61554;BME280;47425;51.976;5.326;2023-01-30T04:11:47;101380.22;;;14.15;47.68
61554;BME280;47425;51.976;5.326;2023-01-30T04:14:15;101379.22;;;13.86;47.60
61554;BME280;47425;51.976;5.326;2023-01-30T04:17:03;101384.69;;;13.78;48.14
61554;BME280;47425;51.976;5.326;2023-01-30T04:20:00;101379.38;;;13.43;49.47
61554;BME280;47425;51.976;5.326;2023-01-30T04:22:30;101382.00;;;13.43;48.87
61554;BME280;47425;51.976;5.326;2023-01-30T04:24:57;101377.31;;;13.56;48.31
61554;BME280;47425;51.976;5.326;2023-01-30T04:27:26;101379.66;;;13.69;48.35
61554;BME280;47425;51.976;5.326;2023-01-30T04:30:13;101386.75;;;13.65;48.73
61554;BME280;47425;51.976;5.326;2023-01-30T04:32:40;101382.69;;;13.52;49.22
61554;BME280;47425;51.976;5.326;2023-01-30T04:35:09;101386.56;;;13.35;49.40
61554;BME280;47425;51.976;5.326;2023-01-30T04:37:38;101390.97;;;13.33;49.84
61554;BME280;47425;51.976;5.326;2023-01-30T04:40:07;101385.22;;;13.16;50.25
61554;BME280;47425;51.976;5.326;2023-01-30T04:42:36;101397.88;;;12.98;50.84
61554;BME280;47425;51.976;5.326;2023-01-30T04:45:35;101396.81;;;12.65;51.80
61554;BME280;47425;51.976;5.326;2023-01-30T04:48:03;101386.41;;;12.60;51.69
61554;BME280;47425;51.976;5.326;2023-01-30T04:50:31;101403.41;;;12.86;50.95
61554;BME280;47425;51.976;5.326;2023-01-30T04:52:57;101386.81;;;12.82;51.53
61554;BME280;47425;51.976;5.326;2023-01-30T04:55:24;101391.72;;;12.99;50.40
61554;BME280;47425;51.976;5.326;2023-01-30T04:58:12;101371.66;;;12.95;50.43
61554;BME280;47425;51.976;5.326;2023-01-30T05:00:39;101388.06;;;13.08;50.24
61554;BME280;47425;51.976;5.326;2023-01-30T05:03:05;101388.09;;;13.05;51.08
61554;BME280;47425;51.976;5.326;2023-01-30T05:05:32;101390.41;;;12.78;51.43
61554;BME280;47425;51.976;5.326;2023-01-30T05:08:00;101388.53;;;12.85;51.20
61554;BME280;47425;51.976;5.326;2023-01-30T05:10:27;101387.53;;;12.92;51.09
61554;BME280;47425;51.976;5.326;2023-01-30T05:12:54;101389.44;;;12.84;51.19
61554;BME280;47425;51.976;5.326;2023-01-30T05:15:23;101390.41;;;12.78;51.27
61554;BME280;47425;51.976;5.326;2023-01-30T05:17:49;101389.44;;;12.82;50.91
61554;BME280;47425;51.976;5.326;2023-01-30T05:20:16;101381.59;;;12.81;50.78
61554;BME280;47425;51.976;5.326;2023-01-30T05:22:43;101398.81;;;12.96;50.62
61554;BME280;47425;51.976;5.326;2023-01-30T05:25:11;101384.81;;;12.95;50.19
61554;BME280;47425;51.976;5.326;2023-01-30T05:27:37;101386.34;;;13.04;50.03
61554;BME280;47425;51.976;5.326;2023-01-30T05:30:05;101378.97;;;12.81;50.45
61554;BME280;47425;51.976;5.326;2023-01-30T05:32:33;101385.09;;;12.83;50.32
61554;BME280;47425;51.976;5.326;2023-01-30T05:35:01;101380.47;;;12.92;50.28
61554;BME280;47425;51.976;5.326;2023-01-30T05:37:27;101406.19;;;12.78;50.23
61554;BME280;47425;51.976;5.326;2023-01-30T05:39:54;101415.97;;;12.71;50.57
61554;BME280;47425;51.976;5.326;2023-01-30T05:42:34;101412.41;;;12.74;50.39
61554;BME280;47425;51.976;5.326;2023-01-30T05:45:02;101420.47;;;12.65;50.64
61554;BME280;47425;51.976;5.326;2023-01-30T05:47:29;101423.69;;;12.79;50.31
61554;BME280;47425;51.976;5.326;2023-01-30T05:49:57;101431.91;;;12.62;50.30
61554;BME280;47425;51.976;5.326;2023-01-30T05:52:25;101438.97;;;12.60;50.68
61554;BME280;47425;51.976;5.326;2023-01-30T05:54:52;101412.50;;;12.69;50.22
61554;BME280;47425;51.976;5.326;2023-01-30T05:57:18;101410.75;;;12.70;50.20
61554;BME280;47425;51.976;5.326;2023-01-30T05:59:45;101411.59;;;12.72;50.36
61554;BME280;47425;51.976;5.326;2023-01-30T06:02:12;101411.09;;;12.51;50.85
61554;BME280;47425;51.976;5.326;2023-01-30T06:04:39;101415.81;;;12.34;50.98
61554;BME280;47425;51.976;5.326;2023-01-30T06:07:07;101417.41;;;12.42;51.28
61554;BME280;47425;51.976;5.326;2023-01-30T06:09:33;101416.53;;;12.44;51.15
61554;BME280;47425;51.976;5.326;2023-01-30T06:12:00;101427.56;;;12.59;50.16
61554;BME280;47425;51.976;5.326;2023-01-30T06:14:27;101429.63;;;12.89;49.85
61554;BME280;47425;51.976;5.326;2023-01-30T06:16:54;101425.88;;;13.01;49.63
61554;BME280;47425;51.976;5.326;2023-01-30T06:19:22;101436.19;;;13.10;49.14
61554;BME280;47425;51.976;5.326;2023-01-30T06:21:48;101432.03;;;13.00;48.98
61554;BME280;47425;51.976;5.326;2023-01-30T06:24:16;101422.63;;;12.89;49.21
61554;BME280;47425;51.976;5.326;2023-01-30T06:26:43;101441.53;;;13.07;48.99
61554;BME280;47425;51.976;5.326;2023-01-30T06:29:11;101456.19;;;13.19;48.50
61554;BME280;47425;51.976;5.326;2023-01-30T06:31:37;101453.56;;;13.17;48.87
61554;BME280;47425;51.976;5.326;2023-01-30T06:34:04;101444.22;;;13.04;48.88
61554;BME280;47425;51.976;5.326;2023-01-30T06:36:30;101449.28;;;13.13;48.69
61554;BME280;47425;51.976;5.326;2023-01-30T06:38:57;101449.16;;;13.19;48.56
61554;BME280;47425;51.976;5.326;2023-01-30T06:41:25;101445.16;;;13.43;48.50
61554;BME280;47425;51.976;5.326;2023-01-30T06:43:52;101448.38;;;13.56;47.62
61554;BME280;47425;51.976;5.326;2023-01-30T06:46:20;101452.31;;;13.35;47.83
61554;BME280;47425;51.976;5.326;2023-01-30T06:48:47;101440.22;;;13.28;48.12
61554;BME280;47425;51.976;5.326;2023-01-30T06:51:14;101444.34;;;13.41;48.09
61554;BME280;47425;51.976;5.326;2023-01-30T06:53:40;101453.69;;;13.53;47.25
61554;BME280;47425;51.976;5.326;2023-01-30T06:56:08;101449.69;;;13.37;47.55
61554;BME280;47425;51.976;5.326;2023-01-30T06:58:36;101452.69;;;13.18;47.84
61554;BME280;47425;51.976;5.326;2023-01-30T07:01:02;101461.34;;;13.23;47.77
61554;BME280;47425;51.976;5.326;2023-01-30T07:03:29;101457.97;;;13.17;48.21
61554;BME280;47425;51.976;5.326;2023-01-30T07:05:56;101475.78;;;13.02;48.18
61554;BME280;47425;51.976;5.326;2023-01-30T07:08:22;101466.81;;;13.13;48.11
61554;BME280;47425;51.976;5.326;2023-01-30T07:10:49;101460.72;;;13.12;48.19
61554;BME280;47425;51.976;5.326;2023-01-30T07:13:16;101477.88;;;12.86;47.90
61554;BME280;47425;51.976;5.326;2023-01-30T07:15:44;101459.69;;;12.75;48.67
61554;BME280;47425;51.976;5.326;2023-01-30T07:18:11;101476.97;;;12.87;48.33
61554;BME280;47425;51.976;5.326;2023-01-30T07:20:38;101482.22;;;12.87;48.44
61554;BME280;47425;51.976;5.326;2023-01-30T07:23:07;101495.34;;;12.90;48.29
61554;BME280;47425;51.976;5.326;2023-01-30T07:25:34;101494.56;;;12.85;48.52
61554;BME280;47425;51.976;5.326;2023-01-30T07:28:01;101484.91;;;12.86;47.76
61554;BME280;47425;51.976;5.326;2023-01-30T07:30:30;101498.34;;;12.69;47.86
61554;BME280;47425;51.976;5.326;2023-01-30T07:32:59;101499.91;;;12.79;49.08
61554;BME280;47425;51.976;5.326;2023-01-30T07:35:31;101492.50;;;13.00;48.25
61554;BME280;47425;51.976;5.326;2023-01-30T07:37:59;101496.81;;;13.02;48.76
61554;BME280;47425;51.976;5.326;2023-01-30T07:40:26;101495.06;;;13.04;48.07
61554;BME280;47425;51.976;5.326;2023-01-30T07:42:57;101488.16;;;12.97;47.93
61554;BME280;47425;51.976;5.326;2023-01-30T07:45:24;101490.31;;;13.22;47.45
61554;BME280;47425;51.976;5.326;2023-01-30T07:47:51;101507.53;;;12.95;47.17
61554;BME280;47425;51.976;5.326;2023-01-30T07:50:22;101512.84;;;12.90;48.45
61554;BME280;47425;51.976;5.326;2023-01-30T07:52:50;101504.63;;;12.62;47.30
61554;BME280;47425;51.976;5.326;2023-01-30T07:55:17;101518.59;;;12.65;47.86
61554;BME280;47425;51.976;5.326;2023-01-30T07:57:44;101500.72;;;12.34;48.77
61554;BME280;47425;51.976;5.326;2023-01-30T08:00:11;101510.31;;;12.37;48.45
61554;BME280;47425;51.976;5.326;2023-01-30T08:02:38;101523.25;;;12.49;46.32
61554;BME280;47425;51.976;5.326;2023-01-30T08:05:05;101511.88;;;12.47;48.52
61554;BME280;47425;51.976;5.326;2023-01-30T08:07:34;101520.19;;;12.72;48.69
61554;BME280;47425;51.976;5.326;2023-01-30T08:10:01;101521.19;;;13.10;48.03
61554;BME280;47425;51.976;5.326;2023-01-30T08:12:28;101518.97;;;13.34;46.77
61554;BME280;47425;51.976;5.326;2023-01-30T08:14:54;101518.25;;;13.27;45.79
61554;BME280;47425;51.976;5.326;2023-01-30T08:17:22;101519.00;;;12.89;46.65
61554;BME280;47425;51.976;5.326;2023-01-30T08:19:49;101519.16;;;12.80;47.96
61554;BME280;47425;51.976;5.326;2023-01-30T08:22:15;101513.88;;;12.83;48.28
61554;BME280;47425;51.976;5.326;2023-01-30T08:24:44;101521.13;;;12.70;47.34
61554;BME280;47425;51.976;5.326;2023-01-30T08:27:11;101534.34;;;12.65;47.62
61554;BME280;47425;51.976;5.326;2023-01-30T08:29:37;101535.78;;;12.82;47.74
61554;BME280;47425;51.976;5.326;2023-01-30T08:32:04;101542.63;;;12.92;46.95
61554;BME280;47425;51.976;5.326;2023-01-30T08:34:32;101545.31;;;12.87;47.00
61554;BME280;47425;51.976;5.326;2023-01-30T08:37:00;101541.19;;;12.74;47.26
61554;BME280;47425;51.976;5.326;2023-01-30T08:39:26;101556.91;;;12.77;48.31
61554;BME280;47425;51.976;5.326;2023-01-30T08:41:55;101553.88;;;12.97;47.68
61554;BME280;47425;51.976;5.326;2023-01-30T08:44:23;101564.97;;;13.13;47.74
61554;BME280;47425;51.976;5.326;2023-01-30T08:46:49;101564.19;;;13.09;46.94
61554;BME280;47425;51.976;5.326;2023-01-30T08:49:16;101572.59;;;13.29;46.68
61554;BME280;47425;51.976;5.326;2023-01-30T08:51:42;101572.28;;;13.46;46.59
61554;BME280;47425;51.976;5.326;2023-01-30T08:54:09;101572.38;;;13.41;45.54
61554;BME280;47425;51.976;5.326;2023-01-30T08:56:36;101582.47;;;13.16;46.24
61554;BME280;47425;51.976;5.326;2023-01-30T08:59:08;101593.94;;;13.12;46.88
61554;BME280;47425;51.976;5.326;2023-01-30T09:01:36;101570.63;;;12.93;47.29
61554;BME280;47425;51.976;5.326;2023-01-30T09:04:03;101585.19;;;13.11;47.29
61554;BME280;47425;51.976;5.326;2023-01-30T09:06:30;101585.09;;;13.16;46.83
61554;BME280;47425;51.976;5.326;2023-01-30T09:08:57;101596.44;;;13.19;46.81
61554;BME280;47425;51.976;5.326;2023-01-30T09:11:25;101592.81;;;13.25;45.83
61554;BME280;47425;51.976;5.326;2023-01-30T09:13:52;101595.59;;;13.19;46.30
61554;BME280;47425;51.976;5.326;2023-01-30T09:16:21;101593.00;;;13.16;46.82
61554;BME280;47425;51.976;5.326;2023-01-30T09:18:48;101598.22;;;13.19;46.36
61554;BME280;47425;51.976;5.326;2023-01-30T09:21:14;101594.09;;;13.04;46.24
61554;BME280;47425;51.976;5.326;2023-01-30T09:23:41;101595.44;;;12.78;47.22
61554;BME280;47425;51.976;5.326;2023-01-30T09:26:08;101597.88;;;12.90;47.52
61554;BME280;47425;51.976;5.326;2023-01-30T09:28:36;101594.38;;;12.88;46.80
61554;BME280;47425;51.976;5.326;2023-01-30T09:31:03;101609.09;;;12.99;46.50
61554;BME280;47425;51.976;5.326;2023-01-30T09:33:31;101606.66;;;12.88;46.49
61554;BME280;47425;51.976;5.326;2023-01-30T09:35:57;101602.69;;;12.62;46.68
61554;BME280;47425;51.976;5.326;2023-01-30T09:38:24;101591.44;;;12.57;47.00
61554;BME280;47425;51.976;5.326;2023-01-30T09:41:17;101606.50;;;12.44;48.00
61554;BME280;47425;51.976;5.326;2023-01-30T09:44:00;101614.38;;;12.46;47.36
61554;BME280;47425;51.976;5.326;2023-01-30T09:46:41;101617.88;;;12.45;47.40
61554;BME280;47425;51.976;5.326;2023-01-30T09:49:23;101615.22;;;12.48;46.84
61554;BME280;47425;51.976;5.326;2023-01-30T09:51:58;101618.00;;;12.35;47.60
61554;BME280;47425;51.976;5.326;2023-01-30T09:54:30;101618.66;;;12.50;48.11
61554;BME280;47425;51.976;5.326;2023-01-30T09:57:09;101626.50;;;12.54;46.94
61554;BME280;47425;51.976;5.326;2023-01-30T09:59:46;101628.53;;;12.35;48.19
61554;BME280;47425;51.976;5.326;2023-01-30T10:02:27;101621.56;;;12.34;47.86
61554;BME280;47425;51.976;5.326;2023-01-30T10:04:59;101649.38;;;12.48;46.91
61554;BME280;47425;51.976;5.326;2023-01-30T10:07:37;101652.09;;;12.41;47.17
61554;BME280;47425;51.976;5.326;2023-01-30T10:10:18;101635.72;;;12.22;46.47
61554;BME280;47425;51.976;5.326;2023-01-30T10:12:56;101640.94;;;12.25;47.98
61554;BME280;47425;51.976;5.326;2023-01-30T10:15:42;101644.97;;;12.48;47.08
61554;BME280;47425;51.976;5.326;2023-01-30T10:18:35;101650.16;;;12.51;46.77
61554;BME280;47425;51.976;5.326;2023-01-30T10:21:17;101664.44;;;12.35;47.53
61554;BME280;47425;51.976;5.326;2023-01-30T10:26:43;101663.66;;;12.28;47.40
61554;BME280;47425;51.976;5.326;2023-01-30T10:29:33;101675.22;;;12.15;47.77
61554;BME280;47425;51.976;5.326;2023-01-30T10:32:04;101678.09;;;11.96;47.81
61554;BME280;47425;51.976;5.326;2023-01-30T10:34:36;101682.50;;;11.92;48.46
61554;BME280;47425;51.976;5.326;2023-01-30T10:37:08;101665.72;;;12.04;47.79
61554;BME280;47425;51.976;5.326;2023-01-30T10:39:44;101675.13;;;12.22;48.84
61554;BME280;47425;51.976;5.326;2023-01-30T10:42:17;101669.94;;;12.16;47.05
61554;BME280;47425;51.976;5.326;2023-01-30T10:44:48;101671.66;;;12.19;48.58
61554;BME280;47425;51.976;5.326;2023-01-30T10:47:26;101668.84;;;12.34;47.88
61554;BME280;47425;51.976;5.326;2023-01-30T10:50:09;101659.13;;;12.39;47.70
61554;BME280;47425;51.976;5.326;2023-01-30T10:52:39;101667.97;;;12.32;46.81
61554;BME280;47425;51.976;5.326;2023-01-30T10:55:15;101682.97;;;12.24;47.56
61554;BME280;47425;51.976;5.326;2023-01-30T10:57:52;101673.97;;;12.40;47.62
61554;BME280;47425;51.976;5.326;2023-01-30T11:00:27;101681.72;;;12.50;47.29
61554;BME280;47425;51.976;5.326;2023-01-30T11:03:08;101677.03;;;12.13;47.59
61554;BME280;47425;51.976;5.326;2023-01-30T11:05:41;101650.97;;;11.94;47.90
61554;BME280;47425;51.976;5.326;2023-01-30T11:08:19;101670.44;;;12.43;47.72
61554;BME280;47425;51.976;5.326;2023-01-30T11:10:47;101678.09;;;12.58;47.67
61554;BME280;47425;51.976;5.326;2023-01-30T11:13:17;101642.94;;;12.66;47.33
61554;BME280;47425;51.976;5.326;2023-01-30T11:15:45;101681.28;;;12.79;47.03
61554;BME280;47425;51.976;5.326;2023-01-30T11:18:13;101686.59;;;12.76;46.97
61554;BME280;47425;51.976;5.326;2023-01-30T11:20:44;101686.91;;;12.56;46.31
61554;BME280;47425;51.976;5.326;2023-01-30T11:23:25;101679.66;;;12.09;47.70
61554;BME280;47425;51.976;5.326;2023-01-30T11:25:57;101680.69;;;11.99;48.37
61554;BME280;47425;51.976;5.326;2023-01-30T11:28:25;101676.78;;;12.28;48.72
61554;BME280;47425;51.976;5.326;2023-01-30T11:30:55;101672.97;;;12.51;47.32
61554;BME280;47425;51.976;5.326;2023-01-30T11:33:31;101670.00;;;12.72;47.77
61554;BME280;47425;51.976;5.326;2023-01-30T11:36:02;101682.97;;;12.83;46.72
61554;BME280;47425;51.976;5.326;2023-01-30T11:38:33;101669.81;;;12.83;46.88
61554;BME280;47425;51.976;5.326;2023-01-30T11:41:12;101678.53;;;12.87;46.93
61554;BME280;47425;51.976;5.326;2023-01-30T11:43:44;101678.53;;;12.87;46.62
61554;BME280;47425;51.976;5.326;2023-01-30T11:46:15;101659.25;;;12.86;47.37
61554;BME280;47425;51.976;5.326;2023-01-30T11:48:48;101664.31;;;12.99;46.18
61554;BME280;47425;51.976;5.326;2023-01-30T11:51:19;101659.19;;;12.91;45.85
61554;BME280;47425;51.976;5.326;2023-01-30T11:53:53;101677.06;;;12.69;45.98
61554;BME280;47425;51.976;5.326;2023-01-30T11:56:22;101667.06;;;12.35;46.07
61554;BME280;47425;51.976;5.326;2023-01-30T11:58:54;101677.84;;;12.15;47.60
61554;BME280;47425;51.976;5.326;2023-01-30T12:01:26;101665.56;;;12.15;47.55
61554;BME280;47425;51.976;5.326;2023-01-30T12:03:56;101665.59;;;12.14;47.56
61554;BME280;47425;51.976;5.326;2023-01-30T12:06:24;101667.94;;;12.37;47.06
61554;BME280;47425;51.976;5.326;2023-01-30T12:08:56;101682.63;;;12.50;47.06
61554;BME280;47425;51.976;5.326;2023-01-30T12:11:30;101679.13;;;12.48;46.69
61554;BME280;47425;51.976;5.326;2023-01-30T12:14:13;101684.50;;;12.40;46.64
61554;BME280;47425;51.976;5.326;2023-01-30T12:16:59;101696.28;;;12.12;47.24
61554;BME280;47425;51.976;5.326;2023-01-30T12:19:35;101698.22;;;11.97;46.96
61554;BME280;47425;51.976;5.326;2023-01-30T12:22:15;101698.25;;;11.89;48.30
61554;BME280;47425;51.976;5.326;2023-01-30T12:24:53;101690.31;;;11.99;47.65
61554;BME280;47425;51.976;5.326;2023-01-30T12:27:30;101697.34;;;11.97;47.50
61554;BME280;47425;51.976;5.326;2023-01-30T12:30:04;101701.09;;;11.72;48.34
61554;BME280;47425;51.976;5.326;2023-01-30T12:32:36;101705.25;;;11.90;48.35
61554;BME280;47425;51.976;5.326;2023-01-30T12:35:13;101708.69;;;11.99;48.42
61554;BME280;47425;51.976;5.326;2023-01-30T12:37:48;101708.69;;;11.99;47.56
61554;BME280;47425;51.976;5.326;2023-01-30T12:40:32;101722.81;;;11.85;47.93
61554;BME280;47425;51.976;5.326;2023-01-30T12:43:21;101708.19;;;11.63;48.18
61554;BME280;47425;51.976;5.326;2023-01-30T12:45:59;101715.03;;;11.76;47.96
61554;BME280;47425;51.976;5.326;2023-01-30T12:48:43;101705.66;;;11.53;48.06
61554;BME280;47425;51.976;5.326;2023-01-30T12:51:34;101720.69;;;11.39;49.04
61554;BME280;47425;51.976;5.326;2023-01-30T12:54:12;101710.78;;;11.67;49.05
61554;BME280;47425;51.976;5.326;2023-01-30T12:56:55;101689.00;;;11.57;47.99
61554;BME280;47425;51.976;5.326;2023-01-30T12:59:33;101718.66;;;11.67;48.51
61554;BME280;47425;51.976;5.326;2023-01-30T13:02:25;101729.75;;;11.89;48.49
61554;BME280;47425;51.976;5.326;2023-01-30T13:05:09;101706.91;;;12.01;48.18
61554;BME280;47425;51.976;5.326;2023-01-30T13:07:58;101725.31;;;12.01;46.52
61554;BME280;47425;51.976;5.326;2023-01-30T13:10:33;101737.13;;;11.56;48.17
61554;BME280;47425;51.976;5.326;2023-01-30T13:13:11;101740.50;;;11.68;48.45
61554;BME280;47425;51.976;5.326;2023-01-30T13:15:46;101735.31;;;11.60;48.18
61554;BME280;47425;51.976;5.326;2023-01-30T13:18:23;101747.78;;;11.39;48.33